sensor_id;sensor_type;location;lat;lon;timestamp;pressure;altitude;pressure_sealevel;temperature;humidity
73525;BME280;61776;56.194;44.160;2022-07-22T05:13:30;100303.78;;;23.48;54.20
73525;BME280;61776;56.194;44.160;2022-07-22T05:15:56;100299.94;;;23.69;52.83
73525;BME280;61776;56.194;44.160;2022-07-22T05:18:22;100299.94;;;23.69;52.12
73525;BME280;61776;56.194;44.160;2022-07-22T05:20:48;100296.00;;;23.53;51.98
73525;BME280;61776;56.194;44.160;2022-07-22T05:23:14;100284.91;;;23.38;53.03
73525;BME280;61776;56.194;44.160;2022-07-22T05:25:40;100280.75;;;23.49;53.19
73525;BME280;61776;56.194;44.160;2022-07-22T05:28:06;100291.78;;;23.71;52.65
73525;BME280;61776;56.194;44.160;2022-07-22T05:30:35;100291.66;;;23.84;51.31
73525;BME280;61776;56.194;44.160;2022-07-22T05:33:02;100291.84;;;24.08;51.13
73525;BME280;61776;56.194;44.160;2022-07-22T05:35:47;100291.97;;;24.31;49.81
73525;BME280;61776;56.194;44.160;2022-07-22T05:38:14;100288.88;;;24.34;51.03
73525;BME280;61776;56.194;44.160;2022-07-22T05:40:40;100291.19;;;24.31;50.92
73525;BME280;61776;56.194;44.160;2022-07-22T05:43:06;100286.66;;;24.31;50.67
73525;BME280;61776;56.194;44.160;2022-07-22T05:45:32;100294.41;;;24.33;51.56
73525;BME280;61776;56.194;44.160;2022-07-22T05:47:58;100294.94;;;24.41;51.98
73525;BME280;61776;56.194;44.160;2022-07-22T05:50:24;100294.00;;;24.85;51.52
73525;BME280;61776;56.194;44.160;2022-07-22T05:52:50;100291.59;;;25.25;50.78
73525;BME280;61776;56.194;44.160;2022-07-22T05:55:16;100299.25;;;25.69;48.79
73525;BME280;61776;56.194;44.160;2022-07-22T05:57:43;100293.47;;;25.95;47.83
73525;BME280;61776;56.194;44.160;2022-07-22T06:00:10;100297.53;;;26.10;48.44
73525;BME280;61776;56.194;44.160;2022-07-22T06:02:42;100296.19;;;26.36;47.25
73525;BME280;61776;56.194;44.160;2022-07-22T06:05:13;100298.91;;;26.53;46.49
73525;BME280;61776;56.194;44.160;2022-07-22T06:07:39;100298.53;;;26.73;46.34
73525;BME280;61776;56.194;44.160;2022-07-22T06:10:08;100296.03;;;26.83;44.83
73525;BME280;61776;56.194;44.160;2022-07-22T06:12:34;100298.56;;;26.90;44.90
73525;BME280;61776;56.194;44.160;2022-07-22T06:14:59;100287.69;;;26.51;44.72
73525;BME280;61776;56.194;44.160;2022-07-22T06:17:25;100297.88;;;26.13;45.67
73525;BME280;61776;56.194;44.160;2022-07-22T06:19:52;100302.72;;;25.81;45.74
73525;BME280;61776;56.194;44.160;2022-07-22T06:22:19;100310.13;;;25.55;47.00
73525;BME280;61776;56.194;44.160;2022-07-22T06:24:45;100305.69;;;25.37;47.20
73525;BME280;61776;56.194;44.160;2022-07-22T06:27:12;100301.84;;;25.22;46.70
73525;BME280;61776;56.194;44.160;2022-07-22T06:29:38;100298.47;;;25.14;46.76
73525;BME280;61776;56.194;44.160;2022-07-22T06:32:04;100305.38;;;25.15;46.71
73525;BME280;61776;56.194;44.160;2022-07-22T06:34:30;100307.53;;;25.25;47.29
73525;BME280;61776;56.194;44.160;2022-07-22T06:37:02;100309.28;;;25.43;47.74
73525;BME280;61776;56.194;44.160;2022-07-22T06:39:28;100316.16;;;25.98;46.45
73525;BME280;61776;56.194;44.160;2022-07-22T06:42:00;100306.97;;;26.70;46.34
73525;BME280;61776;56.194;44.160;2022-07-22T06:44:46;100309.06;;;27.42;44.29
73525;BME280;61776;56.194;44.160;2022-07-22T06:47:38;100309.00;;;27.93;43.21
73525;BME280;61776;56.194;44.160;2022-07-22T06:50:07;100314.09;;;28.17;41.67
73525;BME280;61776;56.194;44.160;2022-07-22T06:52:33;100308.22;;;28.37;40.89
73525;BME280;61776;56.194;44.160;2022-07-22T06:54:59;100315.13;;;28.55;41.32
73525;BME280;61776;56.194;44.160;2022-07-22T06:57:31;100307.03;;;28.72;40.55
73525;BME280;61776;56.194;44.160;2022-07-22T06:59:57;100313.59;;;28.86;40.74
73525;BME280;61776;56.194;44.160;2022-07-22T07:02:24;100312.22;;;29.11;40.63
73525;BME280;61776;56.194;44.160;2022-07-22T07:04:50;100315.88;;;29.32;39.40
73525;BME280;61776;56.194;44.160;2022-07-22T07:07:16;100315.19;;;29.47;38.61
73525;BME280;61776;56.194;44.160;2022-07-22T07:10:00;100314.44;;;29.56;38.90
73525;BME280;61776;56.194;44.160;2022-07-22T07:12:37;100313.16;;;29.64;39.33
73525;BME280;61776;56.194;44.160;2022-07-22T07:15:18;100306.22;;;29.68;38.34
73525;BME280;61776;56.194;44.160;2022-07-22T07:17:44;100313.50;;;29.73;38.78
73525;BME280;61776;56.194;44.160;2022-07-22T07:20:14;100311.44;;;29.80;38.46
73525;BME280;61776;56.194;44.160;2022-07-22T07:22:40;100310.44;;;30.02;38.87
73525;BME280;61776;56.194;44.160;2022-07-22T07:25:07;100314.28;;;30.16;37.64
73525;BME280;61776;56.194;44.160;2022-07-22T07:27:34;100318.09;;;30.30;37.46
73525;BME280;61776;56.194;44.160;2022-07-22T07:30:02;100317.47;;;30.08;37.09
73525;BME280;61776;56.194;44.160;2022-07-22T07:32:29;100315.47;;;29.88;36.85
73525;BME280;61776;56.194;44.160;2022-07-22T07:34:54;100316.53;;;29.49;37.98
73525;BME280;61776;56.194;44.160;2022-07-22T07:37:20;100310.22;;;29.01;38.96
73525;BME280;61776;56.194;44.160;2022-07-22T07:39:46;100327.63;;;28.76;39.41
73525;BME280;61776;56.194;44.160;2022-07-22T07:42:12;100312.47;;;28.55;39.44
73525;BME280;61776;56.194;44.160;2022-07-22T07:44:39;100326.16;;;28.41;39.01
73525;BME280;61776;56.194;44.160;2022-07-22T07:47:05;100328.69;;;28.31;39.59
73525;BME280;61776;56.194;44.160;2022-07-22T07:49:31;100332.31;;;28.20;40.55
73525;BME280;61776;56.194;44.160;2022-07-22T07:51:57;100329.94;;;28.23;41.05
73525;BME280;61776;56.194;44.160;2022-07-22T07:54:23;100329.59;;;28.59;38.94
73525;BME280;61776;56.194;44.160;2022-07-22T07:56:50;100328.59;;;29.19;39.28
73525;BME280;61776;56.194;44.160;2022-07-22T07:59:16;100318.69;;;29.90;38.54
73525;BME280;61776;56.194;44.160;2022-07-22T08:01:44;100321.63;;;30.41;37.08
73525;BME280;61776;56.194;44.160;2022-07-22T08:04:10;100316.91;;;30.79;35.76
73525;BME280;61776;56.194;44.160;2022-07-22T08:06:35;100318.03;;;31.04;35.74
73525;BME280;61776;56.194;44.160;2022-07-22T08:09:03;100323.41;;;31.09;33.99
73525;BME280;61776;56.194;44.160;2022-07-22T08:11:32;100322.06;;;31.01;34.07
73525;BME280;61776;56.194;44.160;2022-07-22T08:14:19;100317.75;;;31.00;34.75
73525;BME280;61776;56.194;44.160;2022-07-22T08:17:11;100315.09;;;31.05;34.89
73525;BME280;61776;56.194;44.160;2022-07-22T08:19:37;100313.72;;;31.23;34.45
73525;BME280;61776;56.194;44.160;2022-07-22T08:22:03;100307.56;;;31.38;34.63
73525;BME280;61776;56.194;44.160;2022-07-22T08:24:32;100313.47;;;31.50;34.24
73525;BME280;61776;56.194;44.160;2022-07-22T08:27:00;100315.59;;;31.64;34.13
73525;BME280;61776;56.194;44.160;2022-07-22T08:29:28;100310.44;;;31.88;34.17
73525;BME280;61776;56.194;44.160;2022-07-22T08:31:54;100316.56;;;32.09;33.31
73525;BME280;61776;56.194;44.160;2022-07-22T08:34:20;100320.00;;;32.25;33.29
73525;BME280;61776;56.194;44.160;2022-07-22T08:36:46;100318.78;;;32.52;33.34
73525;BME280;61776;56.194;44.160;2022-07-22T08:39:12;100322.09;;;32.33;33.95
73525;BME280;61776;56.194;44.160;2022-07-22T08:41:38;100324.47;;;32.45;33.23
73525;BME280;61776;56.194;44.160;2022-07-22T08:44:07;100321.19;;;31.88;33.33
73525;BME280;61776;56.194;44.160;2022-07-22T08:46:34;100316.66;;;31.42;34.51
73525;BME280;61776;56.194;44.160;2022-07-22T08:49:18;100318.28;;;30.92;35.04
73525;BME280;61776;56.194;44.160;2022-07-22T08:51:52;100325.69;;;30.59;36.12
73525;BME280;61776;56.194;44.160;2022-07-22T08:54:24;100322.50;;;30.62;33.79
73525;BME280;61776;56.194;44.160;2022-07-22T08:56:51;100319.47;;;30.38;34.14
73525;BME280;61776;56.194;44.160;2022-07-22T08:59:17;100323.84;;;30.02;34.87
73525;BME280;61776;56.194;44.160;2022-07-22T09:02:09;100332.72;;;29.65;35.63
73525;BME280;61776;56.194;44.160;2022-07-22T09:04:58;100323.81;;;29.54;37.51
73525;BME280;61776;56.194;44.160;2022-07-22T09:07:36;100330.44;;;29.51;38.05
73525;BME280;61776;56.194;44.160;2022-07-22T09:10:13;100324.34;;;29.56;37.74
73525;BME280;61776;56.194;44.160;2022-07-22T09:13:14;100324.75;;;30.28;37.22
73525;BME280;61776;56.194;44.160;2022-07-22T09:15:59;100331.63;;;30.76;37.25
73525;BME280;61776;56.194;44.160;2022-07-22T09:18:49;100316.94;;;30.94;35.45
73525;BME280;61776;56.194;44.160;2022-07-22T09:21:23;100323.66;;;31.07;35.86
73525;BME280;61776;56.194;44.160;2022-07-22T09:24:07;100319.91;;;31.44;35.53
73525;BME280;61776;56.194;44.160;2022-07-22T09:26:37;100311.50;;;32.02;35.08
73525;BME280;61776;56.194;44.160;2022-07-22T09:29:21;100318.66;;;32.27;33.38
73525;BME280;61776;56.194;44.160;2022-07-22T09:32:06;100316.38;;;32.60;32.17
73525;BME280;61776;56.194;44.160;2022-07-22T09:35:05;100319.75;;;32.76;32.45
73525;BME280;61776;56.194;44.160;2022-07-22T09:37:54;100314.31;;;32.86;31.78
73525;BME280;61776;56.194;44.160;2022-07-22T09:40:23;100317.66;;;33.02;32.62
73525;BME280;61776;56.194;44.160;2022-07-22T09:43:01;100321.03;;;33.23;31.63
73525;BME280;61776;56.194;44.160;2022-07-22T09:45:29;100317.25;;;33.24;32.18
73525;BME280;61776;56.194;44.160;2022-07-22T09:47:57;100319.84;;;33.35;31.25
73525;BME280;61776;56.194;44.160;2022-07-22T09:50:41;100314.84;;;33.52;31.76
73525;BME280;61776;56.194;44.160;2022-07-22T09:53:35;100319.53;;;33.71;31.34
73525;BME280;61776;56.194;44.160;2022-07-22T09:56:08;100311.34;;;33.81;31.47
73525;BME280;61776;56.194;44.160;2022-07-22T09:58:35;100313.56;;;33.74;31.29
73525;BME280;61776;56.194;44.160;2022-07-22T10:01:06;100307.25;;;33.59;29.70
73525;BME280;61776;56.194;44.160;2022-07-22T10:03:35;100320.66;;;33.35;30.42
73525;BME280;61776;56.194;44.160;2022-07-22T10:06:04;100316.50;;;33.19;30.14
73525;BME280;61776;56.194;44.160;2022-07-22T10:08:32;100311.69;;;32.76;30.49
73525;BME280;61776;56.194;44.160;2022-07-22T10:11:04;100311.91;;;32.30;31.21
73525;BME280;61776;56.194;44.160;2022-07-22T10:13:31;100307.75;;;31.93;29.86
73525;BME280;61776;56.194;44.160;2022-07-22T10:15:58;100305.94;;;31.42;32.35
73525;BME280;61776;56.194;44.160;2022-07-22T10:18:24;100312.66;;;31.45;32.69
73525;BME280;61776;56.194;44.160;2022-07-22T10:21:06;100312.06;;;31.84;32.73
73525;BME280;61776;56.194;44.160;2022-07-22T10:23:32;100317.25;;;32.40;33.72
73525;BME280;61776;56.194;44.160;2022-07-22T10:26:02;100314.78;;;32.94;33.00
73525;BME280;61776;56.194;44.160;2022-07-22T10:28:32;100308.09;;;33.25;31.99
73525;BME280;61776;56.194;44.160;2022-07-22T10:31:17;100317.06;;;33.45;26.95
73525;BME280;61776;56.194;44.160;2022-07-22T10:33:47;100317.47;;;33.57;28.57
73525;BME280;61776;56.194;44.160;2022-07-22T10:36:14;100318.00;;;33.59;31.67
73525;BME280;61776;56.194;44.160;2022-07-22T10:39:07;100313.88;;;33.43;30.96
73525;BME280;61776;56.194;44.160;2022-07-22T10:41:44;100310.59;;;33.46;30.78
73525;BME280;61776;56.194;44.160;2022-07-22T10:44:10;100313.44;;;33.31;31.23
73525;BME280;61776;56.194;44.160;2022-07-22T10:49:17;100315.53;;;33.63;30.78
73525;BME280;61776;56.194;44.160;2022-07-22T10:52:12;100305.53;;;33.93;30.64
73525;BME280;61776;56.194;44.160;2022-07-22T10:55:16;100307.00;;;34.28;27.45
73525;BME280;61776;56.194;44.160;2022-07-22T10:57:43;100308.13;;;34.65;30.20
73525;BME280;61776;56.194;44.160;2022-07-22T11:00:09;100310.72;;;35.08;29.73
73525;BME280;61776;56.194;44.160;2022-07-22T11:02:36;100302.50;;;35.46;29.07
73525;BME280;61776;56.194;44.160;2022-07-22T11:05:03;100297.78;;;35.71;28.99
73525;BME280;61776;56.194;44.160;2022-07-22T11:07:29;100299.44;;;36.08;27.99
73525;BME280;61776;56.194;44.160;2022-07-22T11:10:29;100296.09;;;36.39;28.02
73525;BME280;61776;56.194;44.160;2022-07-22T11:12:54;100297.53;;;36.59;28.42
73525;BME280;61776;56.194;44.160;2022-07-22T11:15:25;100301.22;;;36.63;26.40
73525;BME280;61776;56.194;44.160;2022-07-22T11:17:56;100297.91;;;36.44;26.41
73525;BME280;61776;56.194;44.160;2022-07-22T11:20:23;100289.00;;;36.29;26.86
73525;BME280;61776;56.194;44.160;2022-07-22T11:22:49;100286.00;;;36.17;26.58
73525;BME280;61776;56.194;44.160;2022-07-22T11:25:15;100290.06;;;35.78;25.86
73525;BME280;61776;56.194;44.160;2022-07-22T11:27:51;100284.63;;;35.50;29.34
73525;BME280;61776;56.194;44.160;2022-07-22T11:30:23;100285.63;;;34.75;28.85
73525;BME280;61776;56.194;44.160;2022-07-22T11:32:49;100291.53;;;34.15;29.08
73525;BME280;61776;56.194;44.160;2022-07-22T11:35:14;100287.66;;;33.78;29.09
73525;BME280;61776;56.194;44.160;2022-07-22T11:37:40;100286.31;;;33.51;28.27
73525;BME280;61776;56.194;44.160;2022-07-22T11:40:07;100278.59;;;33.44;29.21
73525;BME280;61776;56.194;44.160;2022-07-22T11:42:33;100274.91;;;33.64;29.91
73525;BME280;61776;56.194;44.160;2022-07-22T11:45:00;100275.88;;;33.74;29.35
73525;BME280;61776;56.194;44.160;2022-07-22T11:47:25;100268.56;;;33.98;29.70
73525;BME280;61776;56.194;44.160;2022-07-22T11:49:51;100269.97;;;33.96;28.72
73525;BME280;61776;56.194;44.160;2022-07-22T11:52:17;100275.56;;;33.99;28.17
73525;BME280;61776;56.194;44.160;2022-07-22T11:54:44;100276.66;;;33.98;27.48
73525;BME280;61776;56.194;44.160;2022-07-22T11:57:12;100273.91;;;34.03;29.33
73525;BME280;61776;56.194;44.160;2022-07-22T11:59:40;100267.88;;;34.12;29.54
73525;BME280;61776;56.194;44.160;2022-07-22T12:02:07;100269.59;;;34.46;28.18
73525;BME280;61776;56.194;44.160;2022-07-22T12:04:35;100260.84;;;34.54;28.42
73525;BME280;61776;56.194;44.160;2022-07-22T12:07:02;100269.09;;;34.44;28.49
73525;BME280;61776;56.194;44.160;2022-07-22T12:09:33;100269.28;;;34.85;30.19
73525;BME280;61776;56.194;44.160;2022-07-22T12:11:59;100269.81;;;35.34;28.79
73525;BME280;61776;56.194;44.160;2022-07-22T12:14:27;100269.72;;;35.94;28.57
73525;BME280;61776;56.194;44.160;2022-07-22T12:17:00;100264.34;;;36.45;28.21
73525;BME280;61776;56.194;44.160;2022-07-22T12:19:51;100262.81;;;36.75;26.32
73525;BME280;61776;56.194;44.160;2022-07-22T12:22:21;100259.13;;;36.94;26.36
73525;BME280;61776;56.194;44.160;2022-07-22T12:24:59;100262.13;;;37.15;26.68
73525;BME280;61776;56.194;44.160;2022-07-22T12:27:26;100258.97;;;37.21;25.45
73525;BME280;61776;56.194;44.160;2022-07-22T12:29:52;100256.34;;;37.07;24.35
73525;BME280;61776;56.194;44.160;2022-07-22T12:35:03;100261.25;;;36.60;24.26
73525;BME280;61776;56.194;44.160;2022-07-22T12:37:33;100253.88;;;36.15;25.71
73525;BME280;61776;56.194;44.160;2022-07-22T12:40:02;100253.22;;;35.96;24.85
73525;BME280;61776;56.194;44.160;2022-07-22T12:42:32;100251.59;;;36.09;26.22
73525;BME280;61776;56.194;44.160;2022-07-22T12:45:06;100253.41;;;36.50;26.00
73525;BME280;61776;56.194;44.160;2022-07-22T12:47:48;100256.25;;;36.67;27.02
73525;BME280;61776;56.194;44.160;2022-07-22T12:50:42;100247.91;;;36.41;25.21
73525;BME280;61776;56.194;44.160;2022-07-22T12:53:33;100254.69;;;36.66;24.41
73525;BME280;61776;56.194;44.160;2022-07-22T12:56:01;100255.44;;;36.44;25.21
73525;BME280;61776;56.194;44.160;2022-07-22T12:58:30;100268.56;;;36.37;25.61
73525;BME280;61776;56.194;44.160;2022-07-22T13:01:00;100262.28;;;36.28;24.80
73525;BME280;61776;56.194;44.160;2022-07-22T13:03:27;100263.41;;;36.27;24.30
73525;BME280;61776;56.194;44.160;2022-07-22T13:05:55;100265.28;;;36.26;25.92
73525;BME280;61776;56.194;44.160;2022-07-22T13:08:22;100260.50;;;36.09;25.76
73525;BME280;61776;56.194;44.160;2022-07-22T13:10:50;100262.19;;;36.19;26.12
73525;BME280;61776;56.194;44.160;2022-07-22T13:13:16;100259.41;;;36.10;26.59
73525;BME280;61776;56.194;44.160;2022-07-22T13:15:42;100259.41;;;36.24;25.50
73525;BME280;61776;56.194;44.160;2022-07-22T13:18:08;100263.16;;;36.37;25.27
73525;BME280;61776;56.194;44.160;2022-07-22T13:20:33;100267.97;;;36.63;25.37
73525;BME280;61776;56.194;44.160;2022-07-22T13:23:00;100259.19;;;37.02;24.80
73525;BME280;61776;56.194;44.160;2022-07-22T13:25:25;100265.59;;;36.84;24.69
73525;BME280;61776;56.194;44.160;2022-07-22T13:27:53;100259.31;;;36.02;25.24
73525;BME280;61776;56.194;44.160;2022-07-22T13:30:19;100255.53;;;35.33;26.79
73525;BME280;61776;56.194;44.160;2022-07-22T13:32:44;100258.31;;;35.42;25.86
73525;BME280;61776;56.194;44.160;2022-07-22T13:35:10;100258.72;;;35.35;26.61
73525;BME280;61776;56.194;44.160;2022-07-22T13:37:37;100263.63;;;35.61;26.96
73525;BME280;61776;56.194;44.160;2022-07-22T13:40:04;100264.72;;;36.02;26.46
73525;BME280;61776;56.194;44.160;2022-07-22T13:42:30;100266.41;;;36.11;27.04
73525;BME280;61776;56.194;44.160;2022-07-22T13:44:56;100263.50;;;36.22;25.78
73525;BME280;61776;56.194;44.160;2022-07-22T13:47:22;100264.13;;;36.41;25.04
73525;BME280;61776;56.194;44.160;2022-07-22T13:49:48;100266.41;;;36.25;23.91
73525;BME280;61776;56.194;44.160;2022-07-22T13:52:15;100261.09;;;36.20;24.61
73525;BME280;61776;56.194;44.160;2022-07-22T13:54:42;100254.56;;;36.35;24.50
73525;BME280;61776;56.194;44.160;2022-07-22T13:57:09;100260.69;;;36.13;24.50
73525;BME280;61776;56.194;44.160;2022-07-22T13:59:35;100260.16;;;35.74;24.78
73525;BME280;61776;56.194;44.160;2022-07-22T14:02:02;100254.94;;;35.64;24.76
73525;BME280;61776;56.194;44.160;2022-07-22T14:04:29;100260.03;;;35.52;25.58
73525;BME280;61776;56.194;44.160;2022-07-22T14:06:55;100265.81;;;35.59;26.11
73525;BME280;61776;56.194;44.160;2022-07-22T14:09:21;100264.41;;;35.48;25.56
73525;BME280;61776;56.194;44.160;2022-07-22T14:11:47;100263.75;;;35.56;24.73
73525;BME280;61776;56.194;44.160;2022-07-22T14:14:13;100260.53;;;35.68;26.57
73525;BME280;61776;56.194;44.160;2022-07-22T14:16:39;100257.88;;;36.32;24.04
73525;BME280;61776;56.194;44.160;2022-07-22T14:19:10;100272.78;;;36.88;24.36
73525;BME280;61776;56.194;44.160;2022-07-22T14:21:40;100266.06;;;37.08;24.36
73525;BME280;61776;56.194;44.160;2022-07-22T14:24:08;100273.53;;;37.34;25.61
73525;BME280;61776;56.194;44.160;2022-07-22T14:26:35;100270.03;;;37.34;24.07
73525;BME280;61776;56.194;44.160;2022-07-22T14:29:01;100274.75;;;37.19;24.52
73525;BME280;61776;56.194;44.160;2022-07-22T14:31:27;100273.09;;;37.49;23.23
73525;BME280;61776;56.194;44.160;2022-07-22T14:33:54;100274.84;;;37.45;23.52
73525;BME280;61776;56.194;44.160;2022-07-22T14:36:21;100270.81;;;37.65;23.59
73525;BME280;61776;56.194;44.160;2022-07-22T14:38:47;100283.50;;;38.14;23.58
73525;BME280;61776;56.194;44.160;2022-07-22T14:41:16;100278.44;;;38.38;22.64
73525;BME280;61776;56.194;44.160;2022-07-22T14:43:42;100277.66;;;38.55;22.24
73525;BME280;61776;56.194;44.160;2022-07-22T14:46:08;100285.25;;;38.88;22.51
73525;BME280;61776;56.194;44.160;2022-07-22T14:48:36;100288.97;;;39.39;21.94
73525;BME280;61776;56.194;44.160;2022-07-22T14:51:03;100291.84;;;39.73;20.38
73525;BME280;61776;56.194;44.160;2022-07-22T14:53:29;100284.16;;;40.05;22.06
73525;BME280;61776;56.194;44.160;2022-07-22T14:55:55;100290.03;;;39.56;21.55
73525;BME280;61776;56.194;44.160;2022-07-22T14:58:21;100293.69;;;39.60;22.19
73525;BME280;61776;56.194;44.160;2022-07-22T15:00:47;100296.28;;;39.86;21.06
73525;BME280;61776;56.194;44.160;2022-07-22T15:03:13;100295.03;;;40.05;21.24
73525;BME280;61776;56.194;44.160;2022-07-22T15:05:39;100289.88;;;40.12;21.51
73525;BME280;61776;56.194;44.160;2022-07-22T15:08:07;100296.69;;;40.48;20.43
73525;BME280;61776;56.194;44.160;2022-07-22T15:10:33;100297.16;;;40.62;20.82
73525;BME280;61776;56.194;44.160;2022-07-22T17:10:21;100284.69;;;24.27;45.86
73525;BME280;61776;56.194;44.160;2022-07-22T17:12:48;100288.16;;;24.09;46.06
73525;BME280;61776;56.194;44.160;2022-07-22T17:15:15;100292.13;;;23.99;46.19
73525;BME280;61776;56.194;44.160;2022-07-22T17:17:41;100281.38;;;23.94;47.24
73525;BME280;61776;56.194;44.160;2022-07-22T17:20:09;100278.88;;;23.81;47.67
73525;BME280;61776;56.194;44.160;2022-07-22T17:25:17;100291.00;;;23.63;48.63
73525;BME280;61776;56.194;44.160;2022-07-22T17:27:43;100289.28;;;23.51;48.77
73525;BME280;61776;56.194;44.160;2022-07-22T17:30:09;100287.63;;;23.31;49.17
73525;BME280;61776;56.194;44.160;2022-07-22T17:32:35;100295.91;;;23.10;49.87
73525;BME280;61776;56.194;44.160;2022-07-22T17:35:01;100288.41;;;23.00;48.82
73525;BME280;61776;56.194;44.160;2022-07-22T17:37:28;100288.00;;;23.03;48.94
73525;BME280;61776;56.194;44.160;2022-07-22T17:39:54;100292.88;;;23.06;49.28
73525;BME280;61776;56.194;44.160;2022-07-22T17:42:20;100282.06;;;23.08;49.64
73525;BME280;61776;56.194;44.160;2022-07-22T17:44:45;100296.34;;;23.00;50.52
73525;BME280;61776;56.194;44.160;2022-07-22T17:47:11;100292.78;;;22.87;50.73
73525;BME280;61776;56.194;44.160;2022-07-22T17:49:38;100284.72;;;22.69;51.21
73525;BME280;61776;56.194;44.160;2022-07-22T17:56:06;100284.94;;;22.02;54.14
73525;BME280;61776;56.194;44.160;2022-07-22T18:01:44;100283.56;;;21.53;56.04
73525;BME280;61776;56.194;44.160;2022-07-22T18:04:11;100289.63;;;21.33;56.36
73525;BME280;61776;56.194;44.160;2022-07-22T18:06:40;100287.78;;;21.14;57.13
73525;BME280;61776;56.194;44.160;2022-07-22T18:09:06;100287.31;;;20.84;58.75
73525;BME280;61776;56.194;44.160;2022-07-22T18:11:32;100296.19;;;20.69;58.73
73525;BME280;61776;56.194;44.160;2022-07-22T18:13:58;100288.25;;;20.63;59.45
73525;BME280;61776;56.194;44.160;2022-07-22T18:16:24;100284.00;;;20.62;59.33
73525;BME280;61776;56.194;44.160;2022-07-22T18:18:49;100285.22;;;20.66;59.19
73525;BME280;61776;56.194;44.160;2022-07-22T18:21:15;100285.22;;;20.66;59.75
73525;BME280;61776;56.194;44.160;2022-07-22T18:23:41;100279.88;;;20.59;60.06
73525;BME280;61776;56.194;44.160;2022-07-22T18:26:28;100278.22;;;20.51;60.30
73525;BME280;61776;56.194;44.160;2022-07-22T19:01:48;100290.16;;;19.28;64.57
73525;BME280;61776;56.194;44.160;2022-07-22T19:09:42;100289.59;;;19.11;65.11
73525;BME280;61776;56.194;44.160;2022-07-22T19:12:28;100292.19;;;19.04;65.27
73525;BME280;61776;56.194;44.160;2022-07-22T19:16:24;100290.28;;;18.98;65.62
73525;BME280;61776;56.194;44.160;2022-07-22T19:52:25;100302.16;;;18.28;67.17
73525;BME280;61776;56.194;44.160;2022-07-22T19:59:51;100305.94;;;18.10;67.89
73525;BME280;61776;56.194;44.160;2022-07-22T20:06:56;100309.13;;;17.91;68.66
